Time;durP1;ratioP1;P1;durP2;ratioP2;P2;SDS_P1;SDS_P2;PMS_P1;PMS_P2;Temp;Humidity;BMP_temperature;BMP_pressure;BME280_temperature;BME280_humidity;BME280_pressure;Samples;Min_cycle;Max_cycle;Signal;HPM_P1;HPM_P2
2023/03/07 00:02:15;;;;;;;1.90;0.90;;;18.00;49.20;;;;;;6251485;28;20130;-71
2023/03/07 00:05:17;;;;;;;2.50;1.20;;;18.00;49.20;;;;;;6251687;28;20021;-71
2023/03/07 00:08:17;;;;;;;1.10;1.00;;;18.00;49.20;;;;;;6269230;28;20112;-71
2023/03/07 00:11:18;;;;;;;1.63;0.90;;;18.00;49.20;;;;;;6269502;28;20025;-70
2023/03/07 00:14:19;;;;;;;2.75;1.00;;;18.00;49.20;;;;;;6269257;28;20036;-71
2023/03/07 00:17:20;;;;;;;1.67;0.88;;;18.00;49.20;;;;;;6251261;28;20033;-71
2023/03/07 00:20:21;;;;;;;1.33;0.93;;;18.00;49.20;;;;;;6250950;28;20107;-71
2023/03/07 00:23:22;;;;;;;2.03;1.00;;;18.00;49.20;;;;;;6283762;28;20068;-70
2023/03/07 00:26:24;;;;;;;0.95;0.70;;;18.00;49.20;;;;;;6294127;28;20021;-71
2023/03/07 00:29:25;;;;;;;1.85;0.90;;;18.00;49.20;;;;;;6294221;28;20168;-70
2023/03/07 00:32:26;;;;;;;1.27;0.82;;;18.00;49.20;;;;;;6257471;28;20110;-70
2023/03/07 00:35:26;;;;;;;1.30;0.82;;;18.00;49.10;;;;;;6250832;28;20076;-71
2023/03/07 00:38:29;;;;;;;0.70;0.70;;;18.00;49.10;;;;;;6268797;28;20474;-71
2023/03/07 00:41:30;;;;;;;1.02;0.80;;;18.00;49.10;;;;;;6251193;28;20108;-69
2023/03/07 00:44:31;;;;;;;1.60;1.00;;;18.00;49.10;;;;;;6251440;28;20021;-71
2023/03/07 00:47:32;;;;;;;1.80;0.90;;;18.00;49.10;;;;;;6251208;28;20021;-71
2023/03/07 00:50:33;;;;;;;1.02;0.80;;;18.00;49.10;;;;;;6268605;28;20548;-71
2023/03/07 00:53:35;;;;;;;1.67;1.00;;;18.00;49.20;;;;;;6268571;28;20460;-70
2023/03/07 00:56:35;;;;;;;1.15;0.73;;;18.00;49.10;;;;;;6268733;28;20028;-71
2023/03/07 00:59:36;;;;;;;1.35;0.98;;;18.00;49.10;;;;;;6250924;28;20032;-71
2023/03/07 01:02:38;;;;;;;1.45;0.88;;;18.00;49.10;;;;;;6252020;28;20021;-71
2023/03/07 01:05:39;;;;;;;1.10;0.80;;;18.00;49.10;;;;;;6256118;28;20021;-71
2023/03/07 01:08:40;;;;;;;0.77;0.70;;;18.00;49.10;;;;;;6273415;28;20021;-71
2023/03/07 01:11:41;;;;;;;1.25;0.80;;;18.00;49.10;;;;;;6273593;28;20032;-71
2023/03/07 01:14:42;;;;;;;0.85;0.73;;;18.00;49.10;;;;;;6255550;28;20036;-71
2023/03/07 01:17:43;;;;;;;1.70;1.10;;;18.00;49.20;;;;;;6255654;28;20025;-70
2023/03/07 01:20:44;;;;;;;0.88;0.70;;;18.00;49.10;;;;;;6255768;28;20025;-71
2023/03/07 01:23:45;;;;;;;1.75;1.08;;;18.00;49.10;;;;;;6279089;28;20425;-71
2023/03/07 01:26:47;;;;;;;1.42;0.90;;;18.00;49.10;;;;;;6280168;28;20021;-70
2023/03/07 01:29:48;;;;;;;1.50;0.90;;;18.00;49.10;;;;;;6298108;28;20025;-71
2023/03/07 01:32:59;;;;;;;1.42;0.85;;;18.00;49.10;;;;;;6266486;28;20029;-71
2023/03/07 01:36:00;;;;;;;1.58;0.90;;;18.00;49.10;;;;;;6272933;28;20041;-71
2023/03/07 01:39:09;;;;;;;1.08;0.70;;;18.00;49.20;;;;;;6246852;28;20036;-70
2023/03/07 01:42:10;;;;;;;1.30;0.82;;;18.00;49.20;;;;;;6272743;28;20551;-70
2023/03/07 01:45:13;;;;;;;1.30;0.90;;;18.00;49.10;;;;;;6272968;28;20021;-71
2023/03/07 01:48:14;;;;;;;1.77;0.82;;;18.00;49.10;;;;;;6272680;28;20470;-69
2023/03/07 01:51:16;;;;;;;1.65;0.80;;;18.00;49.10;;;;;;6273333;28;20029;-71
2023/03/07 01:54:19;;;;;;;1.77;1.05;;;18.00;49.10;;;;;;6272474;28;20025;-70
2023/03/07 01:57:28;;;;;;;1.52;0.88;;;18.00;49.10;;;;;;6272156;28;20159;-70
2023/03/07 02:00:29;;;;;;;1.70;0.90;;;18.00;49.10;;;;;;6272444;28;20020;-71
2023/03/07 02:04:11;;;;;;;1.45;0.93;;;18.00;49.10;;;;;;6272484;28;20543;-70
2023/03/07 02:07:13;;;;;;;0.75;0.70;;;18.00;49.10;;;;;;6272098;28;20037;-71
2023/03/07 02:10:17;;;;;;;1.00;0.80;;;18.00;49.10;;;;;;6254473;28;20559;-70
2023/03/07 02:13:19;;;;;;;1.35;0.80;;;18.00;49.10;;;;;;6272232;28;20094;-71
2023/03/07 02:16:20;;;;;;;2.40;1.25;;;18.00;49.00;;;;;;6271322;28;20079;-71
2023/03/07 02:19:42;;;;;;;1.50;1.08;;;18.00;49.00;;;;;;6271562;28;20029;-71
2023/03/07 02:22:43;;;;;;;1.27;0.90;;;18.00;48.90;;;;;;6266242;28;20013;-71
2023/03/07 02:26:12;;;;;;;1.83;1.17;;;18.00;49.00;;;;;;6269668;28;20025;-71
2023/03/07 02:29:13;;;;;;;1.73;1.17;;;18.00;49.00;;;;;;6264529;28;20033;-70
2023/03/07 02:32:14;;;;;;;1.00;0.90;;;18.00;48.90;;;;;;6245994;28;20675;-71
2023/03/07 02:35:23;;;;;;;3.45;1.13;;;18.00;48.90;;;;;;6253773;28;20095;-70
2023/03/07 02:38:24;;;;;;;1.20;1.00;;;18.00;48.90;;;;;;6271600;28;20043;-71
2023/03/07 02:41:28;;;;;;;1.88;1.20;;;18.00;48.90;;;;;;6253891;28;20033;-71
2023/03/07 02:44:29;;;;;;;1.48;1.10;;;17.90;48.90;;;;;;6271709;28;20092;-71
2023/03/07 02:47:31;;;;;;;1.48;1.00;;;18.00;48.90;;;;;;6271136;28;20021;-71
2023/03/07 02:50:32;;;;;;;1.48;1.00;;;18.00;48.90;;;;;;6253208;28;20482;-70
2023/03/07 02:53:33;;;;;;;1.20;0.90;;;18.00;49.00;;;;;;6271116;28;20025;-70
2023/03/07 02:56:34;;;;;;;1.52;1.00;;;17.90;49.00;;;;;;6271060;28;20024;-70
2023/03/07 02:59:36;;;;;;;1.63;1.17;;;17.90;48.90;;;;;;6270957;28;20113;-70
2023/03/07 03:02:37;;;;;;;1.70;1.20;;;17.90;48.90;;;;;;6253383;28;20079;-70
2023/03/07 03:05:38;;;;;;;1.33;1.10;;;17.90;48.90;;;;;;6270585;28;20030;-70
2023/03/07 03:08:38;;;;;;;4.45;1.08;;;18.00;48.90;;;;;;6270624;28;20085;-70
2023/03/07 03:11:39;;;;;;;1.92;1.20;;;17.90;48.80;;;;;;6253050;28;20025;-71
2023/03/07 03:14:40;;;;;;;1.08;0.90;;;17.90;48.80;;;;;;6253066;28;20021;-70
2023/03/07 03:17:41;;;;;;;1.52;1.10;;;17.90;48.90;;;;;;6270758;28;20017;-70
2023/03/07 03:20:42;;;;;;;1.33;1.05;;;17.90;48.90;;;;;;6270556;28;20036;-70
2023/03/07 03:23:42;;;;;;;1.92;1.25;;;17.90;48.90;;;;;;6252755;28;20098;-71
2023/03/07 03:26:43;;;;;;;1.23;1.10;;;17.90;48.90;;;;;;6269653;28;20025;-70
2023/03/07 03:29:44;;;;;;;1.13;0.90;;;17.90;48.90;;;;;;6252650;28;20486;-71
2023/03/07 03:32:45;;;;;;;1.65;1.20;;;17.90;49.00;;;;;;6252446;28;20028;-70
2023/03/07 03:35:47;;;;;;;1.83;1.10;;;17.90;48.90;;;;;;6270539;28;20086;-70
2023/03/07 03:38:48;;;;;;;1.45;1.10;;;17.90;48.90;;;;;;6270127;28;20032;-70
2023/03/07 03:41:49;;;;;;;1.40;1.17;;;17.90;48.80;;;;;;6269926;28;20063;-71
2023/03/07 03:44:50;;;;;;;1.13;0.93;;;17.90;48.90;;;;;;6270404;28;20100;-70
2023/03/07 03:47:51;;;;;;;1.33;1.00;;;17.90;48.90;;;;;;6252328;28;20082;-70
2023/03/07 03:51:15;;;;;;;1.60;1.02;;;17.90;48.90;;;;;;6269993;28;20047;-71
2023/03/07 03:54:16;;;;;;;1.33;1.23;;;17.90;48.90;;;;;;6269983;28;20017;-71
2023/03/07 03:57:19;;;;;;;1.88;1.35;;;17.90;48.80;;;;;;6251699;28;20090;-71
2023/03/07 04:00:20;;;;;;;1.35;1.10;;;17.90;48.80;;;;;;6269475;28;20078;-70
2023/03/07 04:03:21;;;;;;;1.48;1.10;;;17.90;48.80;;;;;;6269371;28;20116;-70
2023/03/07 04:06:31;;;;;;;2.03;1.10;;;17.90;48.80;;;;;;6269016;28;20028;-71
2023/03/07 04:09:32;;;;;;;1.05;0.88;;;17.90;48.80;;;;;;6250733;28;20028;-71
2023/03/07 04:12:33;;;;;;;1.75;1.20;;;17.90;48.90;;;;;;6251393;28;20415;-70
2023/03/07 04:15:34;;;;;;;1.30;1.17;;;17.90;48.90;;;;;;6270130;28;20663;-70
2023/03/07 04:18:35;;;;;;;1.20;0.93;;;17.90;48.90;;;;;;6268944;28;20029;-70
2023/03/07 04:21:36;;;;;;;1.40;1.02;;;17.90;48.90;;;;;;6269248;28;20029;-70
2023/03/07 04:24:37;;;;;;;1.35;1.00;;;17.90;48.90;;;;;;6269013;28;20021;-71
2023/03/07 04:27:38;;;;;;;1.58;1.17;;;17.90;48.90;;;;;;6269675;28;20033;-71
2023/03/07 04:30:39;;;;;;;2.35;1.30;;;17.90;48.80;;;;;;6268963;28;20023;-71
2023/03/07 04:33:40;;;;;;;1.55;1.30;;;17.90;48.80;;;;;;6269995;28;20024;-71
2023/03/07 04:36:42;;;;;;;1.60;1.33;;;17.90;48.80;;;;;;6251560;28;20052;-71
2023/03/07 04:39:42;;;;;;;1.80;1.40;;;17.90;48.70;;;;;;6268464;28;20024;-70
2023/03/07 04:42:43;;;;;;;2.03;1.58;;;17.90;48.80;;;;;;6268983;28;20036;-71
2023/03/07 04:45:44;;;;;;;1.48;1.10;;;17.90;48.70;;;;;;6250921;28;20025;-71
2023/03/07 04:48:45;;;;;;;1.77;1.35;;;17.90;48.80;;;;;;6269288;28;20103;-71
2023/03/07 04:51:46;;;;;;;1.52;1.20;;;17.90;48.70;;;;;;6269465;28;20032;-71
2023/03/07 04:54:47;;;;;;;1.15;0.90;;;17.90;48.80;;;;;;6251372;28;20025;-71
2023/03/07 04:57:48;;;;;;;1.40;1.17;;;17.90;48.80;;;;;;6251416;28;20060;-71
2023/03/07 05:00:49;;;;;;;2.10;1.40;;;17.90;48.70;;;;;;6268908;28;20107;-71
2023/03/07 05:03:49;;;;;;;1.45;1.23;;;17.90;48.80;;;;;;6269236;28;20021;-71
2023/03/07 05:06:50;;;;;;;2.65;1.23;;;17.90;48.70;;;;;;6251223;28;20079;-71
2023/03/07 05:09:51;;;;;;;2.22;1.67;;;17.90;48.70;;;;;;6250938;28;20029;-71
2023/03/07 05:12:52;;;;;;;4.32;1.60;;;17.90;48.80;;;;;;6251240;28;20052;-71
2023/03/07 05:15:55;;;;;;;1.40;1.17;;;17.90;48.70;;;;;;6269096;28;20504;-71
2023/03/07 05:18:55;;;;;;;2.00;1.48;;;17.90;48.60;;;;;;6269193;28;20501;-71
2023/03/07 05:21:56;;;;;;;1.80;1.40;;;17.90;48.70;;;;;;6268846;28;20057;-71
2023/03/07 05:24:57;;;;;;;1.55;1.38;;;17.90;48.70;;;;;;6269036;28;20029;-71
2023/03/07 05:27:58;;;;;;;1.33;1.20;;;17.90;48.60;;;;;;6269129;28;20017;-71
2023/03/07 05:30:59;;;;;;;1.20;1.10;;;17.90;48.70;;;;;;6250974;28;20137;-71
2023/03/07 05:34:00;;;;;;;1.20;1.10;;;17.90;48.70;;;;;;6260442;28;20021;-71
2023/03/07 05:37:00;;;;;;;1.48;1.10;;;17.90;48.70;;;;;;6268481;28;20055;-71
2023/03/07 05:40:04;;;;;;;1.52;1.10;;;17.90;49.40;;;;;;6250666;28;20033;-71
2023/03/07 05:43:05;;;;;;;1.52;1.20;;;17.90;48.70;;;;;;6268736;28;20025;-72
2023/03/07 05:46:05;;;;;;;1.60;1.30;;;17.90;48.60;;;;;;6268715;28;20028;-71
2023/03/07 05:49:06;;;;;;;1.52;1.15;;;17.90;48.60;;;;;;6269164;28;20410;-71
2023/03/07 05:52:07;;;;;;;1.42;1.27;;;17.90;48.70;;;;;;6273025;28;20498;-71
2023/03/07 05:55:08;;;;;;;1.60;1.30;;;17.90;48.60;;;;;;6273262;28;20547;-72
2023/03/07 05:58:09;;;;;;;1.75;1.10;;;17.90;48.60;;;;;;6273069;28;20360;-72
2023/03/07 06:01:09;;;;;;;2.00;1.33;;;17.90;48.60;;;;;;6252579;28;20029;-71
2023/03/07 06:04:10;;;;;;;1.90;1.20;;;17.90;48.60;;;;;;6272988;28;20051;-71
2023/03/07 06:07:11;;;;;;;1.95;1.27;;;17.90;48.60;;;;;;6272948;28;20104;-71
2023/03/07 06:10:12;;;;;;;1.25;1.10;;;17.90;48.60;;;;;;6273178;28;20032;-71
2023/03/07 06:13:19;;;;;;;1.40;1.20;;;17.90;48.60;;;;;;6272590;28;20451;-72
2023/03/07 06:16:20;;;;;;;1.60;1.30;;;17.90;48.60;;;;;;6272886;28;20025;-71
2023/03/07 06:19:20;;;;;;;1.80;1.35;;;17.90;48.60;;;;;;6254537;28;20029;-71
2023/03/07 06:22:21;;;;;;;1.40;1.30;;;17.90;48.60;;;;;;6272201;28;20029;-71
2023/03/07 06:25:22;;;;;;;1.25;1.10;;;17.90;48.60;;;;;;6254401;28;20104;-71
2023/03/07 06:28:23;;;;;;;1.20;1.05;;;17.90;48.70;;;;;;6254531;28;20048;-71
2023/03/07 06:31:23;;;;;;;1.35;1.13;;;17.90;48.60;;;;;;6271918;28;20033;-71
2023/03/07 06:34:24;;;;;;;1.15;0.93;;;17.90;48.60;;;;;;6253871;28;20056;-71
2023/03/07 06:37:25;;;;;;;1.60;1.10;;;17.90;48.60;;;;;;6271835;28;20043;-71
2023/03/07 06:40:26;;;;;;;1.77;1.10;;;17.90;48.60;;;;;;6271762;28;20040;-71
2023/03/07 06:43:27;;;;;;;2.17;1.10;;;17.90;48.70;;;;;;6272321;28;20486;-71
2023/03/07 06:46:28;;;;;;;1.70;1.10;;;17.90;48.60;;;;;;6253630;28;20115;-71
2023/03/07 06:49:28;;;;;;;1.95;1.00;;;17.90;48.70;;;;;;6271701;28;20506;-71
2023/03/07 06:52:29;;;;;;;1.17;1.05;;;17.90;48.70;;;;;;6253854;28;20032;-71
2023/03/07 06:55:30;;;;;;;1.48;1.05;;;17.90;48.70;;;;;;6271802;28;20032;-71
2023/03/07 06:58:30;;;;;;;1.25;0.85;;;17.90;48.70;;;;;;6267474;28;20033;-71
2023/03/07 07:01:31;;;;;;;1.20;1.00;;;17.90;48.70;;;;;;6261404;28;20025;-70
2023/03/07 07:04:32;;;;;;;1.70;0.90;;;17.90;48.80;;;;;;6270408;28;20025;-71
2023/03/07 07:07:33;;;;;;;0.98;0.90;;;17.90;48.70;;;;;;6271364;28;20098;-70
2023/03/07 07:10:33;;;;;;;2.58;1.02;;;17.90;48.70;;;;;;6277736;28;20103;-70
2023/03/07 07:13:35;;;;;;;5.50;1.42;;;17.90;48.80;;;;;;6296022;28;20442;-71
2023/03/07 07:16:36;;;;;;;5.45;1.20;;;17.90;48.90;;;;;;6296339;28;20107;-71
2023/03/07 07:19:36;;;;;;;2.17;1.20;;;17.90;48.90;;;;;;6295971;28;20024;-71
2023/03/07 07:22:37;;;;;;;2.45;1.00;;;17.90;48.90;;;;;;6277263;28;20013;-70
2023/03/07 07:25:38;;;;;;;4.07;0.98;;;17.90;49.00;;;;;;6252989;28;20021;-71
2023/03/07 07:28:38;;;;;;;1.38;0.85;;;17.90;49.00;;;;;;6253558;28;20852;-70
2023/03/07 07:31:39;;;;;;;3.47;1.23;;;17.90;49.00;;;;;;6271043;28;20100;-70
2023/03/07 07:34:40;;;;;;;1.30;1.02;;;17.90;49.00;;;;;;6271087;28;20041;-70
2023/03/07 07:37:40;;;;;;;3.70;0.90;;;17.90;48.90;;;;;;6270707;28;20057;-71
2023/03/07 07:40:43;;;;;;;1.77;1.00;;;18.00;49.10;;;;;;6272488;28;20111;-71
2023/03/07 07:43:47;;;;;;;3.70;1.17;;;18.00;49.00;;;;;;6270872;28;20028;-71
2023/03/07 07:46:48;;;;;;;3.10;0.70;;;18.00;49.00;;;;;;6265122;28;20024;-72
2023/03/07 07:49:49;;;;;;;5.22;1.13;;;18.00;49.10;;;;;;6295536;28;20083;-71
2023/03/07 07:52:53;;;;;;;0.90;0.70;;;18.00;49.20;;;;;;6295387;28;20138;-71
2023/03/07 07:55:53;;;;;;;1.90;1.27;;;18.00;49.20;;;;;;6249876;28;20124;-71
2023/03/07 07:58:54;;;;;;;1.38;0.95;;;18.00;49.20;;;;;;6260818;28;20018;-71
2023/03/07 08:01:55;;;;;;;1.83;1.00;;;18.00;49.20;;;;;;6267993;28;20028;-71
2023/03/07 08:04:56;;;;;;;0.70;0.70;;;18.00;49.20;;;;;;6292377;28;20091;-71
2023/03/07 08:07:56;;;;;;;3.03;1.00;;;18.00;49.30;;;;;;6293113;28;20027;-71
2023/03/07 08:10:57;;;;;;;0.95;0.80;;;18.00;49.40;;;;;;6254663;28;20082;-71
2023/03/07 08:13:58;;;;;;;4.78;1.10;;;18.00;49.30;;;;;;6284671;28;20391;-70
2023/03/07 08:16:59;;;;;;;1.00;0.90;;;18.00;49.30;;;;;;6278410;28;20036;-71
2023/03/07 08:20:03;;;;;;;4.45;1.13;;;18.00;49.40;;;;;;6277219;28;20033;-71
2023/03/07 08:23:05;;;;;;;1.00;0.73;;;18.00;49.40;;;;;;6269906;28;20108;-71
2023/03/07 08:26:08;;;;;;;4.90;0.88;;;18.00;49.50;;;;;;6252151;28;20056;-71
2023/03/07 08:29:09;;;;;;;2.60;0.95;;;18.00;49.50;;;;;;6293090;28;20103;-71
2023/03/07 08:32:13;;;;;;;3.60;1.10;;;18.00;49.50;;;;;;6294925;28;20427;-70
2023/03/07 08:35:14;;;;;;;1.17;0.80;;;18.00;49.50;;;;;;6278165;28;20073;-70
2023/03/07 08:38:14;;;;;;;1.65;0.93;;;18.00;49.40;;;;;;6243756;28;20411;-70
2023/03/07 08:41:15;;;;;;;3.78;1.25;;;18.00;49.40;;;;;;6244531;28;20068;-71
2023/03/07 08:44:16;;;;;;;3.58;1.17;;;18.00;49.30;;;;;;6281998;28;20092;-70
2023/03/07 08:47:18;;;;;;;1.17;0.88;;;18.00;49.40;;;;;;6257105;28;20031;-70
2023/03/07 08:50:25;;;;;;;2.67;0.80;;;18.00;49.60;;;;;;6294607;28;20048;-71
2023/03/07 08:53:25;;;;;;;1.08;0.82;;;18.00;49.60;;;;;;6285670;28;20407;-71
2023/03/07 08:56:26;;;;;;;3.22;0.90;;;18.00;49.60;;;;;;6269795;28;20068;-70
2023/03/07 08:59:27;;;;;;;1.00;0.80;;;18.00;49.60;;;;;;6291475;28;20020;-71
2023/03/07 09:02:28;;;;;;;3.50;1.00;;;18.00;49.60;;;;;;6288452;28;20025;-71
2023/03/07 09:05:30;;;;;;;1.10;0.90;;;18.00;49.60;;;;;;6274665;28;20029;-70
2023/03/07 09:08:31;;;;;;;1.42;1.00;;;18.00;49.60;;;;;;6243294;28;20108;-71
2023/03/07 09:11:32;;;;;;;0.80;0.70;;;18.00;49.50;;;;;;6267481;28;20499;-70
2023/03/07 09:14:33;;;;;;;2.78;1.02;;;18.00;49.50;;;;;;6268920;28;20043;-71
2023/03/07 09:17:35;;;;;;;1.98;0.80;;;18.00;49.50;;;;;;6269222;28;20486;-70
2023/03/07 09:20:39;;;;;;;2.30;0.95;;;18.00;49.50;;;;;;6269412;28;20087;-70
2023/03/07 09:23:42;;;;;;;3.33;0.90;;;18.00;49.50;;;;;;6281041;28;20653;-71
2023/03/07 09:26:42;;;;;;;2.20;1.02;;;18.00;49.50;;;;;;6277060;28;20063;-70
2023/03/07 09:29:45;;;;;;;2.90;1.00;;;18.00;49.40;;;;;;6290859;28;20420;-71
2023/03/07 09:32:46;;;;;;;1.30;1.00;;;18.00;49.50;;;;;;6276312;28;20029;-71
2023/03/07 09:35:47;;;;;;;1.00;0.80;;;18.00;49.50;;;;;;6273578;28;20053;-71
2023/03/07 09:38:49;;;;;;;1.20;0.75;;;18.00;49.40;;;;;;6247478;28;20082;-71
2023/03/07 09:42:05;;;;;;;1.52;0.80;;;18.00;49.40;;;;;;6230798;28;20036;-71
2023/03/07 09:45:27;;;;;;;3.35;0.95;;;18.00;49.40;;;;;;6237130;28;20033;-71
2023/03/07 09:48:52;;;;;;;2.03;1.10;;;18.00;49.30;;;;;;6243301;28;20055;-71
2023/03/07 09:51:56;;;;;;;;;;;18.10;49.40;;;;;;6274323;28;20082;-71
2023/03/07 09:55:00;;;;;;;2.20;0.90;;;18.00;49.20;;;;;;6261184;28;20010;-71
2023/03/07 09:58:13;;;;;;;1.30;0.90;;;18.00;49.20;;;;;;6243743;28;20632;-71
2023/03/07 10:01:21;;;;;;;2.13;0.98;;;18.00;49.30;;;;;;6248708;28;20096;-71
2023/03/07 10:04:32;;;;;;;1.15;0.60;;;18.00;49.40;;;;;;6261813;28;20024;-71
2023/03/07 10:07:37;;;;;;;1.88;0.90;;;18.00;49.40;;;;;;6273158;28;20513;-70
2023/03/07 10:10:46;;;;;;;;;;;18.00;49.40;;;;;;6272868;28;20597;-70
2023/03/07 10:14:14;;;;;;;1.77;0.93;;;18.00;49.50;;;;;;6272648;28;20530;-70
2023/03/07 10:17:59;;;;;;;0.90;0.85;;;18.00;49.50;;;;;;6272903;28;20021;-70
2023/03/07 10:21:24;;;;;;;0.63;0.53;;;18.00;49.50;;;;;;6224685;28;20065;-70
2023/03/07 10:25:02;;;;;;;3.47;0.95;;;18.00;49.50;;;;;;6233310;28;20035;-70
2023/03/07 10:28:29;;;;;;;5.07;0.98;;;18.00;49.40;;;;;;6247220;28;20029;-71
2023/03/07 10:31:41;;;;;;;1.17;0.80;;;18.00;49.50;;;;;;6270505;28;20028;-70
2023/03/07 10:34:41;;;;;;;1.60;0.80;;;18.00;49.60;;;;;;6254213;28;20037;-70
2023/03/07 10:37:51;;;;;;;1.92;0.88;;;18.00;49.50;;;;;;6239276;28;20051;-70
2023/03/07 10:41:16;;;;;;;1.35;0.82;;;18.00;49.50;;;;;;6274514;28;20082;-70
2023/03/07 10:44:19;;;;;;;1.43;0.93;;;18.00;49.50;;;;;;6272425;28;20053;-70
2023/03/07 10:47:25;;;;;;;1.05;0.85;;;18.00;49.50;;;;;;6254416;28;20114;-71
2023/03/07 10:51:05;;;;;;;3.33;0.80;;;18.00;49.60;;;;;;6271933;28;20021;-71
2023/03/07 10:54:13;;;;;;;1.50;0.70;;;18.00;49.60;;;;;;6234777;28;20040;-70
2023/03/07 10:57:15;;;;;;;1.02;0.70;;;18.00;49.60;;;;;;6272109;28;20632;-70
2023/03/07 11:00:18;;;;;;;1.30;0.80;;;18.00;49.60;;;;;;6253636;28;20037;-70
2023/03/07 11:03:39;;;;;;;1.10;0.70;;;18.00;49.70;;;;;;6271824;28;20076;-70
2023/03/07 11:06:50;;;;;;;3.50;0.93;;;18.00;49.60;;;;;;6272250;28;20104;-70
2023/03/07 11:09:51;;;;;;;1.63;0.90;;;18.00;49.60;;;;;;6272687;28;20021;-70
2023/03/07 11:12:55;;;;;;;1.10;0.70;;;18.00;49.60;;;;;;6254126;28;20032;-70
2023/03/07 11:16:17;;;;;;;1.60;0.95;;;18.00;49.40;;;;;;6254135;28;20029;-70
2023/03/07 11:19:55;;;;;;;4.72;0.82;;;18.00;49.30;;;;;;6272195;28;20040;-70
2023/03/07 11:23:22;;;;;;;2.78;1.05;;;18.00;49.30;;;;;;6261253;28;20088;-70
2023/03/07 11:26:23;;;;;;;2.80;0.77;;;18.00;49.30;;;;;;6248705;28;20033;-70
2023/03/07 11:29:24;;;;;;;1.05;0.70;;;18.00;49.30;;;;;;6271481;28;20031;-70
2023/03/07 11:32:25;;;;;;;2.50;0.90;;;18.00;49.30;;;;;;6271902;28;20096;-70
2023/03/07 11:35:39;;;;;;;0.80;0.70;;;18.00;49.20;;;;;;6271430;28;20065;-70
2023/03/07 11:39:13;;;;;;;1.60;0.80;;;18.00;49.20;;;;;;6271569;28;20521;-70
2023/03/07 11:42:26;;;;;;;0.80;0.60;;;18.00;49.30;;;;;;6253531;28;20383;-70
2023/03/07 11:45:34;;;;;;;0.68;0.63;;;18.00;49.30;;;;;;6271170;28;20425;-70
2023/03/07 11:49:16;;;;;;;1.00;0.88;;;18.00;49.20;;;;;;6252330;28;20120;-70
2023/03/07 11:53:03;;;;;;;3.65;0.90;;;18.00;49.20;;;;;;6253968;28;20060;-70
2023/03/07 11:56:27;;;;;;;1.45;0.80;;;18.00;49.20;;;;;;6270858;28;20359;-70
2023/03/07 11:59:43;;;;;;;8.98;0.80;;;18.00;49.20;;;;;;6270653;28;20651;-70
2023/03/07 12:02:53;;;;;;;1.30;0.80;;;18.00;49.20;;;;;;6252874;28;20036;-70
2023/03/07 12:06:48;;;;;;;0.88;0.73;;;18.00;49.30;;;;;;6271162;28;20060;-70
2023/03/07 12:10:26;;;;;;;1.30;0.80;;;18.00;49.20;;;;;;6220419;28;20517;-71
2023/03/07 12:13:35;;;;;;;0.80;0.60;;;18.00;49.20;;;;;;6248471;28;20033;-70
2023/03/07 12:17:02;;;;;;;1.42;0.70;;;18.00;49.20;;;;;;6270770;28;20032;-70
2023/03/07 12:20:20;;;;;;;1.85;0.70;;;18.00;49.10;;;;;;6252711;28;20083;-71
2023/03/07 12:23:38;;;;;;;0.63;0.40;;;18.00;49.20;;;;;;6282841;28;20441;-70
2023/03/07 12:26:57;;;;;;;2.78;0.70;;;18.00;49.10;;;;;;6295282;28;20021;-70
2023/03/07 12:30:39;;;;;;;0.68;0.55;;;18.00;49.10;;;;;;6252461;28;20382;-75
2023/03/07 12:33:52;;;;;;;1.63;0.65;;;18.00;49.10;;;;;;6247903;28;20025;-70
2023/03/07 12:37:22;;;;;;;0.63;0.50;;;18.00;49.20;;;;;;6263477;28;20045;-70
2023/03/07 12:40:44;;;;;;;1.30;0.60;;;18.00;49.10;;;;;;6267532;28;20047;-70
2023/03/07 12:43:51;;;;;;;1.17;0.50;;;18.00;49.20;;;;;;6268723;28;20049;-70
2023/03/07 12:47:16;;;;;;;3.63;0.90;;;18.00;49.20;;;;;;6271585;28;20017;-70
2023/03/07 12:50:55;;;;;;;3.63;0.85;;;18.00;49.20;;;;;;6276085;28;20020;-70
2023/03/07 12:54:10;;;;;;;7.68;0.73;;;18.00;49.30;;;;;;6275843;28;20072;-70
2023/03/07 12:57:18;;;;;;;;;;;18.00;49.40;;;;;;6269464;28;20028;-70
2023/03/07 13:00:21;;;;;;;3.22;0.73;;;18.00;49.40;;;;;;6276230;28;19957;-70
2023/03/07 13:03:46;;;;;;;1.67;0.77;;;18.00;49.40;;;;;;6273652;28;20020;-70
2023/03/07 13:06:47;;;;;;;1.67;0.70;;;18.00;49.50;;;;;;6249751;28;20029;-70
2023/03/07 13:09:50;;;;;;;1.67;0.73;;;18.10;49.50;;;;;;6272582;28;20115;-70
2023/03/07 13:12:52;;;;;;;2.00;0.50;;;18.10;49.40;;;;;;6279936;28;20032;-70
2023/03/07 13:16:34;;;;;;;5.60;0.63;;;18.10;49.20;;;;;;6273543;28;20064;-70
2023/03/07 13:19:35;;;;;;;0.63;0.32;;;18.20;49.20;;;;;;6294454;28;20451;-69
2023/03/07 13:22:36;;;;;;;2.40;0.63;;;18.20;49.00;;;;;;6298304;28;20059;-70
2023/03/07 13:25:50;;;;;;;1.35;0.75;;;18.20;48.90;;;;;;6248103;28;20375;-70
2023/03/07 13:28:51;;;;;;;2.33;0.77;;;18.20;48.90;;;;;;6246333;28;20094;-70
2023/03/07 13:31:53;;;;;;;1.80;0.75;;;18.20;48.80;;;;;;6255464;28;20025;-70
2023/03/07 13:34:54;;;;;;;0.93;0.40;;;18.20;48.80;;;;;;6260846;28;20067;-70
2023/03/07 13:38:18;;;;;;;0.90;0.40;;;18.20;48.70;;;;;;6295198;28;20040;-71
2023/03/07 13:41:42;;;;;;;0.95;0.45;;;18.30;48.80;;;;;;6298036;28;20106;-70
2023/03/07 13:44:43;;;;;;;4.55;0.82;;;18.30;49.00;;;;;;6288375;28;20486;-70
2023/03/07 13:47:44;;;;;;;2.80;0.40;;;18.30;49.20;;;;;;6273228;28;20052;-70
2023/03/07 13:50:52;;;;;;;1.77;0.60;;;18.20;49.00;;;;;;6279154;28;20036;-70
2023/03/07 13:53:59;;;;;;;1.40;0.60;;;18.20;49.20;;;;;;6275863;28;20021;-70
2023/03/07 13:57:00;;;;;;;2.25;0.52;;;18.20;49.10;;;;;;6272928;28;20097;-70
2023/03/07 14:00:03;;;;;;;10.38;0.88;;;18.20;49.40;;;;;;6247478;28;20029;-70
2023/03/07 14:03:21;;;;;;;4.60;0.57;;;18.20;49.30;;;;;;6248211;28;20024;-70
2023/03/07 14:06:36;;;;;;;5.07;0.70;;;18.20;49.40;;;;;;6248066;28;20437;-70
2023/03/07 14:09:46;;;;;;;;;;;18.20;49.30;;;;;;6254650;28;20024;-70
2023/03/07 14:13:24;;;;;;;1.23;0.38;;;18.20;49.40;;;;;;6297115;28;19905;-70
2023/03/07 14:16:51;;;;;;;8.60;0.50;;;18.20;49.50;;;;;;6268894;28;20021;-70
2023/03/07 14:19:56;;;;;;;3.10;0.98;;;18.20;49.50;;;;;;6271914;28;20109;-70
2023/03/07 14:23:15;;;;;;;5.38;0.73;;;18.20;49.40;;;;;;6272286;28;20052;-70
2023/03/07 14:26:39;;;;;;;2.83;0.40;;;18.20;49.60;;;;;;6286024;28;20024;-70
2023/03/07 14:29:55;;;;;;;5.90;0.50;;;18.20;49.50;;;;;;6253534;28;20522;-70
2023/03/07 14:32:59;;;;;;;0.82;0.50;;;18.30;49.50;;;;;;6272414;28;20049;-70
2023/03/07 14:36:23;;;;;;;6.43;0.65;;;18.20;49.50;;;;;;6282863;28;20525;-71
2023/03/07 14:39:47;;;;;;;2.15;0.60;;;18.20;49.50;;;;;;6271272;28;20017;-70
2023/03/07 14:42:59;;;;;;;5.78;0.50;;;18.20;49.50;;;;;;6271252;28;20145;-70
2023/03/07 14:46:12;;;;;;;2.15;0.57;;;18.20;49.50;;;;;;6280149;28;20024;-71
2023/03/07 14:49:32;;;;;;;1.83;0.40;;;18.20;49.50;;;;;;6278472;28;20047;-70
2023/03/07 14:52:34;;;;;;;1.92;0.40;;;18.20;49.60;;;;;;6296528;28;20032;-71
2023/03/07 14:55:38;;;;;;;0.90;0.52;;;18.20;49.50;;;;;;6295811;28;20385;-70
2023/03/07 14:59:10;;;;;;;1.83;0.40;;;18.20;49.60;;;;;;6296076;28;20036;-70
2023/03/07 15:02:17;;;;;;;2.03;0.50;;;18.20;49.60;;;;;;6268387;28;20029;-70
2023/03/07 15:05:30;;;;;;;1.50;0.50;;;18.20;49.60;;;;;;6273380;28;20025;-70
2023/03/07 15:08:41;;;;;;;3.25;0.43;;;18.20;49.60;;;;;;6271250;28;20490;-70
2023/03/07 15:11:58;;;;;;;2.58;0.50;;;18.20;49.60;;;;;;6290607;28;20648;-70
2023/03/07 15:15:03;;;;;;;0.82;0.40;;;18.20;49.60;;;;;;6290069;28;20044;-70
2023/03/07 15:18:26;;;;;;;3.15;1.15;;;18.20;49.50;;;;;;6271143;28;20056;-71
2023/03/07 15:21:35;;;;;;;2.90;0.52;;;18.20;49.60;;;;;;6273382;28;20021;-70
2023/03/07 15:24:38;;;;;;;1.13;0.55;;;18.20;49.60;;;;;;6270241;28;20390;-69
2023/03/07 15:27:39;;;;;;;4.07;0.50;;;18.20;49.70;;;;;;6275197;28;20111;-69
2023/03/07 15:30:41;;;;;;;2.55;0.47;;;18.30;49.50;;;;;;6258412;28;20499;-70
2023/03/07 15:33:42;;;;;;;2.60;0.50;;;18.40;49.70;;;;;;6273489;28;20024;-70
2023/03/07 15:36:44;;;;;;;4.13;0.52;;;18.40;49.20;;;;;;6283187;28;20052;-70
2023/03/07 15:39:57;;;;;;;0.52;0.40;;;18.30;49.40;;;;;;6295010;28;20025;-70
2023/03/07 15:43:01;;;;;;;5.97;0.50;;;18.30;49.40;;;;;;6295857;28;20043;-70
2023/03/07 15:46:14;;;;;;;0.50;0.47;;;18.30;49.50;;;;;;6277276;28;20017;-70
2023/03/07 15:49:26;;;;;;;7.03;0.50;;;18.30;49.60;;;;;;6255966;28;20029;-69
2023/03/07 15:52:30;;;;;;;0.60;0.40;;;18.30;49.60;;;;;;6291595;28;20024;-70
2023/03/07 15:55:32;;;;;;;3.55;0.17;;;18.20;49.60;;;;;;6290876;28;20474;-70
2023/03/07 15:58:35;;;;;;;3.00;0.30;;;18.20;49.60;;;;;;6257275;28;20034;-70
2023/03/07 16:01:35;;;;;;;0.73;0.40;;;18.20;49.70;;;;;;6286669;28;20039;-69
2023/03/07 16:04:38;;;;;;;1.35;0.50;;;18.20;49.60;;;;;;6270365;28;20051;-70
2023/03/07 16:07:39;;;;;;;1.20;0.45;;;18.20;49.60;;;;;;6254363;28;20056;-69
2023/03/07 16:10:52;;;;;;;0.57;0.30;;;18.20;49.60;;;;;;6270432;28;20066;-69
2023/03/07 16:13:52;;;;;;;1.60;0.40;;;18.20;49.70;;;;;;6270503;28;20385;-69